This is the latest recevied weather packets stored in our database for station/object YT1XN-8. If no packets are shown the sender has not sent any weather packets the latest 1 day(s).
| Time | Temp. | Humidity | Pressure | Rain* | Wind** | Luminosity | Snow |
|---|---|---|---|---|---|---|---|
| 1777998040 | 25° C | 40% | 1011.5 hPa | 0 mm | 0.89 m/s, 69° | - | - |
| 1777997439 | 25.56° C | 37% | 1011.5 hPa | 0 mm | 0.45 m/s, 83° | - | - |
| 1777996841 | 25.56° C | 37% | 1011.6 hPa | 0 mm | 0.45 m/s, 85° | - | - |
| 1777996779 | 25.56° C | 36% | 1011.7 hPa | 0 mm | 0.89 m/s, 85° | - | - |
| 1777996240 | 26.11° C | 35% | 1011.8 hPa | 0 mm | 1.34 m/s, 86° | - | - |
| 1777996119 | 26.11° C | 35% | 1011.8 hPa | 0 mm | 0.89 m/s, 105° | - | - |
| 1777995640 | 26.11° C | 36% | 1011.9 hPa | 0 mm | 2.68 m/s, 93° | - | - |
| 1777995459 | 26.11° C | 37% | 1012 hPa | 0 mm | 1.79 m/s, 93° | - | - |
| 1777995040 | 26.11° C | 36% | 1012 hPa | 0 mm | 1.79 m/s, 81° | - | - |
| 1777994799 | 26.11° C | 35% | 1012 hPa | 0 mm | 2.24 m/s, 139° | - | - |
| 1777994440 | 26.67° C | 36% | 1012 hPa | 0 mm | 0 m/s | - | - |
| 1777994139 | 26.67° C | 33% | 1012 hPa | 0 mm | 0.89 m/s, 113° | - | - |
| 1777993840 | 26.67° C | 35% | 1012 hPa | 0 mm | 2.68 m/s, 98° | - | - |
| 1777993479 | 26.67° C | 35% | 1012.1 hPa | 0 mm | 3.13 m/s, 85° | - | - |
| 1777993240 | 26.67° C | 36% | 1012.1 hPa | 0 mm | 1.34 m/s, 121° | - | - |
| 1777992819 | 27.22° C | 35% | 1012.2 hPa | 0 mm | 0 m/s | - | - |
| 1777992640 | 27.22° C | 35% | 1012.2 hPa | 0 mm | 0 m/s | - | - |
| 1777992159 | 27.22° C | 34% | 1012.3 hPa | 0 mm | 0.89 m/s, 109° | - | - |
| 1777992040 | 27.22° C | 34% | 1012.3 hPa | 0 mm | 0 m/s | - | - |
| 1777991499 | 27.78° C | 32% | 1012.3 hPa | 0 mm | 0 m/s | - | - |
| 1777991440 | 27.78° C | 32% | 1012.3 hPa | 0 mm | 0.45 m/s, 15° | - | - |
| 1777990839 | 27.22° C | 31% | 1012.3 hPa | 0 mm | 0.89 m/s, 93° | - | - |
| 1777990241 | 27.22° C | 31% | 1012.5 hPa | 0 mm | 1.34 m/s, 142° | - | - |
| 1777990179 | 27.22° C | 31% | 1012.5 hPa | 0 mm | 0 m/s | - | - |
| 1777989640 | 27.78° C | 29% | 1012.6 hPa | 0 mm | 0.45 m/s, 94° | - | - |
* Rain latest hour (hover to see other rain measurements)
** Current wind speed in m/s (hover to see current wind gust speed)